Hallwood, Virginia
Current Conditions -  °F | °C
As of 7:54 AM on Monday 22 Dec 2014 (Local Time) from KWAL Reporting Station
Overcast Overcast  
Wind Chill: 31°   Ceiling: 5000
Heat Index: 38°   Visibility: 10mi
Dew Point: 34°   Wind: 10mph
Humidity: 86%   Direction: 50°NE
Pressure: 30.26"   Gusts: NA
Location:  37.88°N, 75.59°W
Report Text: KWAL 221254Z AUTO 05009KT 10SM OVC050 03/01 A3026 RMK AO2 SLP243 T00330011
Loading
Personal Weather Stations






























Interactive Weather Map New forecast layout! Learn more

10-Day Weather Forecast

Advertisements
Track Severe Weather on mobile